Terminal Aerodrome Forecast
Issued by NWS Buffalo, NY

Home | Current Version | Previous Version | Text Only | Print | Product List | Glossary On
Versions: 1 2 3 4 5 6 7 8 9 10 11 12 13 14 15 16 17 18 19 20 21 22 23 24 25 26 27 28
279
FTUS41 KBUF 102341
TAFROC
TAF
KROC 102341Z 1100/1124 26007KT P6SM SCT100
     FM110600 23006KT P6SM BKN060
     FM112000 16008KT 2SM -SN OVC015=

USA.gov is the U.S. government's official web portal to all federal, state and local government web resources and services.